sensor_id;sensor_type;location;lat;lon;timestamp;pressure;altitude;pressure_sealevel;temperature;humidity
76815;BME280;65768;49.906;19.384;2023-03-26T00:01:39;97356.54;;;7.25;69.62
76815;BME280;65768;49.906;19.384;2023-03-26T00:04:07;97351.00;;;7.32;69.70
76815;BME280;65768;49.906;19.384;2023-03-26T00:06:37;97351.86;;;7.35;69.30
76815;BME280;65768;49.906;19.384;2023-03-26T00:09:09;97351.34;;;7.39;69.25
76815;BME280;65768;49.906;19.384;2023-03-26T00:11:40;97356.02;;;7.41;69.69
76815;BME280;65768;49.906;19.384;2023-03-26T00:14:10;97356.88;;;7.38;69.15
76815;BME280;65768;49.906;19.384;2023-03-26T00:16:41;97355.32;;;7.43;68.88
76815;BME280;65768;49.906;19.384;2023-03-26T00:19:10;97353.41;;;7.41;68.71
76815;BME280;65768;49.906;19.384;2023-03-26T00:21:40;97348.73;;;7.38;69.33
76815;BME280;65768;49.906;19.384;2023-03-26T00:24:10;97351.86;;;7.39;68.80
76815;BME280;65768;49.906;19.384;2023-03-26T00:26:42;97349.23;;;7.47;68.60
76815;BME280;65768;49.906;19.384;2023-03-26T00:29:11;97351.15;;;7.48;68.89
76815;BME280;65768;49.906;19.384;2023-03-26T00:31:40;97342.98;;;7.52;68.61
76815;BME280;65768;49.906;19.384;2023-03-26T00:34:13;97339.52;;;7.55;68.61
76815;BME280;65768;49.906;19.384;2023-03-26T00:36:46;97337.10;;;7.53;69.36
76815;BME280;65768;49.906;19.384;2023-03-26T00:39:14;97334.13;;;7.54;69.45
76815;BME280;65768;49.906;19.384;2023-03-26T00:41:45;97337.60;;;7.56;69.43
76815;BME280;65768;49.906;19.384;2023-03-26T00:44:14;97337.44;;;7.55;69.48
76815;BME280;65768;49.906;19.384;2023-03-26T00:46:42;97337.24;;;7.57;69.24
76815;BME280;65768;49.906;19.384;2023-03-26T00:49:12;97333.27;;;7.61;69.64
76815;BME280;65768;49.906;19.384;2023-03-26T00:51:42;97333.77;;;7.59;69.61
76815;BME280;65768;49.906;19.384;2023-03-26T00:54:10;97325.30;;;7.56;69.92
76815;BME280;65768;49.906;19.384;2023-03-26T00:56:39;97332.40;;;7.61;69.54
76815;BME280;65768;49.906;19.384;2023-03-26T00:59:07;97327.89;;;7.61;69.55
76815;BME280;65768;49.906;19.384;2023-03-26T01:01:36;97325.98;;;7.58;70.23
76815;BME280;65768;49.906;19.384;2023-03-26T01:04:28;97325.81;;;7.55;70.52
76815;BME280;65768;49.906;19.384;2023-03-26T01:07:00;97322.02;;;7.46;70.90
76815;BME280;65768;49.906;19.384;2023-03-26T01:09:31;97327.73;;;7.49;70.74
76815;BME280;65768;49.906;19.384;2023-03-26T01:12:01;97324.44;;;7.48;70.43
76815;BME280;65768;49.906;19.384;2023-03-26T01:14:30;97325.30;;;7.51;70.29
76815;BME280;65768;49.906;19.384;2023-03-26T01:17:00;97324.26;;;7.53;70.27
76815;BME280;65768;49.906;19.384;2023-03-26T01:22:22;97321.83;;;7.57;69.74
76815;BME280;65768;49.906;19.384;2023-03-26T01:24:51;97317.48;;;7.57;69.95
76815;BME280;65768;49.906;19.384;2023-03-26T01:27:50;97309.00;;;7.55;69.62
76815;BME280;65768;49.906;19.384;2023-03-26T01:32:57;97302.08;;;7.47;69.74
76815;BME280;65768;49.906;19.384;2023-03-26T01:36:33;97297.60;;;7.32;70.30
76815;BME280;65768;49.906;19.384;2023-03-26T01:38:36;97295.52;;;7.37;69.32
76815;BME280;65768;49.906;19.384;2023-03-26T01:41:13;97298.11;;;7.34;69.67
76815;BME280;65768;49.906;19.384;2023-03-26T01:43:59;97300.38;;;7.26;69.96
76815;BME280;65768;49.906;19.384;2023-03-26T01:46:32;97303.15;;;7.23;69.84
76815;BME280;65768;49.906;19.384;2023-03-26T01:49:04;97297.96;;;7.21;70.21
76815;BME280;65768;49.906;19.384;2023-03-26T01:51:34;97295.72;;;7.12;70.28
76815;BME280;65768;49.906;19.384;2023-03-26T01:54:06;97299.00;;;7.17;69.97
76815;BME280;65768;49.906;19.384;2023-03-26T01:56:45;97294.52;;;7.08;70.54
76815;BME280;65768;49.906;19.384;2023-03-26T02:02:44;97294.66;;;7.21;69.96
76815;BME280;65768;49.906;19.384;2023-03-26T02:05:39;97285.66;;;7.19;69.99
76815;BME280;65768;49.906;19.384;2023-03-26T02:08:19;97289.30;;;7.14;70.27
76815;BME280;65768;49.906;19.384;2023-03-26T02:10:54;97285.49;;;7.14;70.61
76815;BME280;65768;49.906;19.384;2023-03-26T02:13:25;97285.14;;;7.15;70.55
76815;BME280;65768;49.906;19.384;2023-03-26T02:15:58;97281.15;;;7.17;70.30
76815;BME280;65768;49.906;19.384;2023-03-26T02:18:27;97287.91;;;7.22;70.08
76815;BME280;65768;49.906;19.384;2023-03-26T02:21:10;97287.90;;;7.29;69.85
76815;BME280;65768;49.906;19.384;2023-03-26T02:23:41;97287.02;;;7.29;69.92
76815;BME280;65768;49.906;19.384;2023-03-26T02:26:15;97289.98;;;7.28;70.11
76815;BME280;65768;49.906;19.384;2023-03-26T02:28:44;97287.88;;;7.32;69.57
76815;BME280;65768;49.906;19.384;2023-03-26T02:31:14;97289.27;;;7.34;69.93
76815;BME280;65768;49.906;19.384;2023-03-26T02:33:44;97290.83;;;7.38;69.69
76815;BME280;65768;49.906;19.384;2023-03-26T02:36:16;97292.23;;;7.30;70.07
76815;BME280;65768;49.906;19.384;2023-03-26T02:38:46;97292.05;;;7.30;69.74
76815;BME280;65768;49.906;19.384;2023-03-26T02:41:17;97292.92;;;7.30;69.76
76815;BME280;65768;49.906;19.384;2023-03-26T02:43:45;97288.08;;;7.26;69.92
76815;BME280;65768;49.906;19.384;2023-03-26T02:46:13;97294.49;;;7.25;70.18
76815;BME280;65768;49.906;19.384;2023-03-26T02:48:42;97293.45;;;7.26;69.51
76815;BME280;65768;49.906;19.384;2023-03-26T02:51:10;97289.29;;;7.23;70.04
76815;BME280;65768;49.906;19.384;2023-03-26T02:53:39;97293.80;;;7.13;70.27
76815;BME280;65768;49.906;19.384;2023-03-26T02:56:08;97290.50;;;7.22;69.78
76815;BME280;65768;49.906;19.384;2023-03-26T02:58:36;97289.63;;;7.30;69.44
76815;BME280;65768;49.906;19.384;2023-03-26T03:01:04;97285.46;;;7.34;69.47
76815;BME280;65768;49.906;19.384;2023-03-26T03:03:33;97284.06;;;7.36;69.49
76815;BME280;65768;49.906;19.384;2023-03-26T03:06:03;97280.24;;;7.38;69.17
76815;BME280;65768;49.906;19.384;2023-03-26T03:08:32;97276.25;;;7.44;68.43
76815;BME280;65768;49.906;19.384;2023-03-26T03:13:33;97280.20;;;7.56;68.33
76815;BME280;65768;49.906;19.384;2023-03-26T03:16:02;97282.45;;;7.59;68.41
76815;BME280;65768;49.906;19.384;2023-03-26T03:18:31;97269.61;;;7.63;67.47
76815;BME280;65768;49.906;19.384;2023-03-26T03:20:58;97275.13;;;7.73;67.46
76815;BME280;65768;49.906;19.384;2023-03-26T03:23:27;97278.92;;;7.78;66.64
76815;BME280;65768;49.906;19.384;2023-03-26T03:25:56;97277.33;;;7.84;67.18
76815;BME280;65768;49.906;19.384;2023-03-26T03:28:25;97271.98;;;7.79;67.13
76815;BME280;65768;49.906;19.384;2023-03-26T03:30:54;97269.89;;;7.79;67.13
76815;BME280;65768;49.906;19.384;2023-03-26T03:33:24;97265.02;;;7.81;66.62
76815;BME280;65768;49.906;19.384;2023-03-26T03:35:54;97262.42;;;7.83;66.79
76815;BME280;65768;49.906;19.384;2023-03-26T03:38:22;97265.34;;;7.87;66.61
76815;BME280;65768;49.906;19.384;2023-03-26T03:40:50;97267.09;;;7.85;67.32
76815;BME280;65768;49.906;19.384;2023-03-26T03:43:21;97271.11;;;7.80;67.33
76815;BME280;65768;49.906;19.384;2023-03-26T03:45:49;97272.30;;;7.82;67.02
76815;BME280;65768;49.906;19.384;2023-03-26T03:48:18;97267.31;;;7.75;67.19
76815;BME280;65768;49.906;19.384;2023-03-26T03:50:46;97262.27;;;7.75;66.78
76815;BME280;65768;49.906;19.384;2023-03-26T03:53:14;97262.80;;;7.71;67.20
76815;BME280;65768;49.906;19.384;2023-03-26T03:55:43;97260.59;;;7.64;67.59
76815;BME280;65768;49.906;19.384;2023-03-26T03:58:24;97260.76;;;7.65;67.28
76815;BME280;65768;49.906;19.384;2023-03-26T04:00:54;97264.04;;;7.67;67.27
76815;BME280;65768;49.906;19.384;2023-03-26T04:03:31;97270.29;;;7.62;67.62
76815;BME280;65768;49.906;19.384;2023-03-26T04:06:06;97273.45;;;7.56;67.79
76815;BME280;65768;49.906;19.384;2023-03-26T04:08:37;97273.95;;;7.58;67.64
76815;BME280;65768;49.906;19.384;2023-03-26T04:11:05;97278.82;;;7.53;68.01
76815;BME280;65768;49.906;19.384;2023-03-26T04:13:33;97277.80;;;7.51;67.82
76815;BME280;65768;49.906;19.384;2023-03-26T04:16:03;97272.58;;;7.52;67.64
76815;BME280;65768;49.906;19.384;2023-03-26T04:18:31;97267.73;;;7.49;68.41
76815;BME280;65768;49.906;19.384;2023-03-26T04:20:59;97268.61;;;7.43;68.57
76815;BME280;65768;49.906;19.384;2023-03-26T04:23:31;97270.88;;;7.48;68.24
76815;BME280;65768;49.906;19.384;2023-03-26T04:26:02;97264.98;;;7.47;68.54
76815;BME280;65768;49.906;19.384;2023-03-26T04:28:41;97265.30;;;7.53;68.08
76815;BME280;65768;49.906;19.384;2023-03-26T04:31:19;97259.91;;;7.57;68.25
76815;BME280;65768;49.906;19.384;2023-03-26T04:33:51;97260.06;;;7.63;67.40
76815;BME280;65768;49.906;19.384;2023-03-26T04:36:26;97261.60;;;7.70;67.21
76815;BME280;65768;49.906;19.384;2023-03-26T04:38:56;97265.08;;;7.69;67.30
76815;BME280;65768;49.906;19.384;2023-03-26T04:41:30;97264.57;;;7.65;67.88
76815;BME280;65768;49.906;19.384;2023-03-26T04:44:00;97264.56;;;7.66;67.45
76815;BME280;65768;49.906;19.384;2023-03-26T04:46:29;97261.23;;;7.73;67.27
76815;BME280;65768;49.906;19.384;2023-03-26T04:49:02;97264.70;;;7.78;67.20
76815;BME280;65768;49.906;19.384;2023-03-26T04:51:39;97271.10;;;7.78;67.54
76815;BME280;65768;49.906;19.384;2023-03-26T04:54:09;97271.45;;;7.78;67.40
76815;BME280;65768;49.906;19.384;2023-03-26T04:57:01;97275.44;;;7.80;67.40
76815;BME280;65768;49.906;19.384;2023-03-26T04:59:32;97277.86;;;7.83;67.88
76815;BME280;65768;49.906;19.384;2023-03-26T05:02:05;97278.39;;;7.80;68.32
76815;BME280;65768;49.906;19.384;2023-03-26T05:04:33;97273.03;;;7.75;68.65
76815;BME280;65768;49.906;19.384;2023-03-26T05:07:03;97272.17;;;7.70;69.69
76815;BME280;65768;49.906;19.384;2023-03-26T05:09:32;97275.30;;;7.69;69.02
76815;BME280;65768;49.906;19.384;2023-03-26T05:12:01;97271.15;;;7.69;69.32
76815;BME280;65768;49.906;19.384;2023-03-26T05:14:30;97271.66;;;7.68;69.52
76815;BME280;65768;49.906;19.384;2023-03-26T05:16:59;97269.05;;;7.70;69.40
76815;BME280;65768;49.906;19.384;2023-03-26T05:19:28;97275.64;;;7.74;68.61
76815;BME280;65768;49.906;19.384;2023-03-26T05:21:57;97274.24;;;7.77;68.87
76815;BME280;65768;49.906;19.384;2023-03-26T05:24:25;97273.35;;;7.82;68.47
76815;BME280;65768;49.906;19.384;2023-03-26T05:26:55;97275.06;;;7.89;68.65
76815;BME280;65768;49.906;19.384;2023-03-26T05:29:23;97274.68;;;7.95;68.58
76815;BME280;65768;49.906;19.384;2023-03-26T05:31:53;97273.80;;;7.98;69.19
76815;BME280;65768;49.906;19.384;2023-03-26T05:34:22;97271.20;;;7.96;68.61
76815;BME280;65768;49.906;19.384;2023-03-26T05:36:53;97273.10;;;7.98;68.92
76815;BME280;65768;49.906;19.384;2023-03-26T05:39:21;97275.88;;;7.98;69.30
76815;BME280;65768;49.906;19.384;2023-03-26T05:41:54;97273.45;;;7.97;68.97
76815;BME280;65768;49.906;19.384;2023-03-26T05:44:22;97273.24;;;8.03;68.80
76815;BME280;65768;49.906;19.384;2023-03-26T05:46:51;97266.98;;;8.08;68.33
76815;BME280;65768;49.906;19.384;2023-03-26T05:49:20;97266.57;;;8.20;67.83
76815;BME280;65768;49.906;19.384;2023-03-26T05:51:50;97264.40;;;8.33;67.51
76815;BME280;65768;49.906;19.384;2023-03-26T05:54:19;97262.27;;;8.45;67.71
76815;BME280;65768;49.906;19.384;2023-03-26T05:56:47;97263.79;;;8.53;66.82
76815;BME280;65768;49.906;19.384;2023-03-26T05:59:16;97264.96;;;8.60;66.41
76815;BME280;65768;49.906;19.384;2023-03-26T06:01:45;97263.34;;;8.68;65.76
76815;BME280;65768;49.906;19.384;2023-03-26T06:04:14;97268.35;;;8.93;66.01
76815;BME280;65768;49.906;19.384;2023-03-26T06:06:43;97267.38;;;9.05;65.71
76815;BME280;65768;49.906;19.384;2023-03-26T06:09:12;97272.46;;;8.99;65.84
76815;BME280;65768;49.906;19.384;2023-03-26T06:11:42;97268.63;;;8.80;66.88
76815;BME280;65768;49.906;19.384;2023-03-26T06:14:11;97268.85;;;8.73;66.48
76815;BME280;65768;49.906;19.384;2023-03-26T06:16:41;97271.28;;;8.72;66.30
76815;BME280;65768;49.906;19.384;2023-03-26T06:19:09;97275.31;;;8.68;65.64
76815;BME280;65768;49.906;19.384;2023-03-26T06:21:38;97276.86;;;8.71;66.03
76815;BME280;65768;49.906;19.384;2023-03-26T06:24:06;97280.37;;;8.88;65.66
76815;BME280;65768;49.906;19.384;2023-03-26T06:26:35;97282.71;;;9.00;65.86
76815;BME280;65768;49.906;19.384;2023-03-26T06:29:04;97283.14;;;9.10;65.40
76815;BME280;65768;49.906;19.384;2023-03-26T06:31:33;97287.89;;;9.24;64.65
76815;BME280;65768;49.906;19.384;2023-03-26T06:34:01;97294.23;;;9.33;64.97
76815;BME280;65768;49.906;19.384;2023-03-26T06:36:29;97287.83;;;9.47;62.77
76815;BME280;65768;49.906;19.384;2023-03-26T06:38:58;97285.41;;;9.46;62.38
76815;BME280;65768;49.906;19.384;2023-03-26T06:41:27;97288.46;;;9.54;62.58
76815;BME280;65768;49.906;19.384;2023-03-26T06:43:57;97290.67;;;9.73;62.69
76815;BME280;65768;49.906;19.384;2023-03-26T06:46:26;97294.94;;;9.66;61.66
76815;BME280;65768;49.906;19.384;2023-03-26T06:48:54;97293.33;;;9.70;62.03
76815;BME280;65768;49.906;19.384;2023-03-26T06:51:24;97290.39;;;9.84;62.36
76815;BME280;65768;49.906;19.384;2023-03-26T06:53:52;97292.84;;;9.82;61.36
76815;BME280;65768;49.906;19.384;2023-03-26T06:56:20;97289.92;;;9.63;61.49
76815;BME280;65768;49.906;19.384;2023-03-26T06:58:48;97287.91;;;9.72;61.54
76815;BME280;65768;49.906;19.384;2023-03-26T07:01:16;97287.36;;;10.03;61.65
76815;BME280;65768;49.906;19.384;2023-03-26T07:03:45;97284.31;;;9.96;60.65
76815;BME280;65768;49.906;19.384;2023-03-26T07:06:14;97285.39;;;10.22;59.81
76815;BME280;65768;49.906;19.384;2023-03-26T07:08:42;97283.37;;;10.31;59.76
76815;BME280;65768;49.906;19.384;2023-03-26T07:11:11;97284.24;;;10.44;59.27
76815;BME280;65768;49.906;19.384;2023-03-26T07:13:39;97282.98;;;10.06;59.49
76815;BME280;65768;49.906;19.384;2023-03-26T07:16:08;97277.73;;;9.78;60.50
76815;BME280;65768;49.906;19.384;2023-03-26T07:18:37;97276.93;;;9.73;60.37
76815;BME280;65768;49.906;19.384;2023-03-26T07:21:06;97276.39;;;10.04;60.78
76815;BME280;65768;49.906;19.384;2023-03-26T07:23:35;97272.56;;;10.03;59.92
76815;BME280;65768;49.906;19.384;2023-03-26T07:29:31;97271.73;;;9.85;58.64
76815;BME280;65768;49.906;19.384;2023-03-26T07:40:43;97254.92;;;10.46;58.22
76815;BME280;65768;49.906;19.384;2023-03-26T07:46:28;97255.27;;;10.47;56.76
76815;BME280;65768;49.906;19.384;2023-03-26T07:48:59;97257.22;;;10.68;57.09
76815;BME280;65768;49.906;19.384;2023-03-26T07:51:30;97257.63;;;10.97;56.80
76815;BME280;65768;49.906;19.384;2023-03-26T07:53:59;97261.61;;;10.98;57.21
76815;BME280;65768;49.906;19.384;2023-03-26T07:59:39;97258.49;;;11.17;56.10
76815;BME280;65768;49.906;19.384;2023-03-26T08:02:32;97261.52;;;10.83;55.30
76815;BME280;65768;49.906;19.384;2023-03-26T08:07:58;97261.59;;;10.55;55.28
76815;BME280;65768;49.906;19.384;2023-03-26T08:11:06;97267.85;;;10.33;56.06
76815;BME280;65768;49.906;19.384;2023-03-26T08:16:47;97272.51;;;10.47;56.71
76815;BME280;65768;49.906;19.384;2023-03-26T08:20:01;97280.59;;;10.29;55.52
76815;BME280;65768;49.906;19.384;2023-03-26T08:22:40;97273.64;;;10.14;56.51
76815;BME280;65768;49.906;19.384;2023-03-26T08:25:32;97273.87;;;10.24;57.47
76815;BME280;65768;49.906;19.384;2023-03-26T08:30:47;97273.02;;;10.50;56.78
76815;BME280;65768;49.906;19.384;2023-03-26T08:33:18;97266.70;;;10.53;57.10
76815;BME280;65768;49.906;19.384;2023-03-26T08:35:48;97262.17;;;10.26;57.86
76815;BME280;65768;49.906;19.384;2023-03-26T08:38:18;97259.30;;;10.46;57.78
76815;BME280;65768;49.906;19.384;2023-03-26T08:41:06;97264.30;;;10.22;56.64
76815;BME280;65768;49.906;19.384;2023-03-26T08:44:05;97261.89;;;10.20;57.51
76815;BME280;65768;49.906;19.384;2023-03-26T08:47:24;97262.73;;;10.24;57.53
76815;BME280;65768;49.906;19.384;2023-03-26T08:56:06;97252.45;;;11.04;55.88
76815;BME280;65768;49.906;19.384;2023-03-26T09:07:49;97241.55;;;11.93;53.56
76815;BME280;65768;49.906;19.384;2023-03-26T09:10:26;97238.20;;;12.02;53.31
76815;BME280;65768;49.906;19.384;2023-03-26T09:24:58;97237.36;;;10.88;55.16
76815;BME280;65768;49.906;19.384;2023-03-26T09:39:16;97228.56;;;10.61;57.36
76815;BME280;65768;49.906;19.384;2023-03-26T09:47:55;97219.98;;;12.13;55.09
76815;BME280;65768;49.906;19.384;2023-03-26T09:53:50;97217.64;;;11.38;54.87
76815;BME280;65768;49.906;19.384;2023-03-26T10:07:52;97202.47;;;11.99;51.56
76815;BME280;65768;49.906;19.384;2023-03-26T10:13:11;97194.56;;;12.09;51.81
76815;BME280;65768;49.906;19.384;2023-03-26T10:16:26;97193.61;;;12.35;51.36
76815;BME280;65768;49.906;19.384;2023-03-26T10:24:47;97184.05;;;12.33;50.79
76815;BME280;65768;49.906;19.384;2023-03-26T10:30:53;97175.91;;;13.01;49.30
76815;BME280;65768;49.906;19.384;2023-03-26T10:36:33;97169.48;;;13.06;48.30
76815;BME280;65768;49.906;19.384;2023-03-26T10:39:28;97169.61;;;12.67;47.64
76815;BME280;65768;49.906;19.384;2023-03-26T10:50:34;97169.91;;;12.69;49.05
76815;BME280;65768;49.906;19.384;2023-03-26T10:53:29;97169.19;;;12.77;48.59
76815;BME280;65768;49.906;19.384;2023-03-26T10:58:42;97163.31;;;12.00;50.08
76815;BME280;65768;49.906;19.384;2023-03-26T11:01:27;97174.88;;;11.74;50.49
76815;BME280;65768;49.906;19.384;2023-03-26T11:04:37;97183.00;;;11.51;51.79
76815;BME280;65768;49.906;19.384;2023-03-26T11:10:11;97173.18;;;11.27;52.48
76815;BME280;65768;49.906;19.384;2023-03-26T11:12:50;97179.02;;;11.32;52.14
76815;BME280;65768;49.906;19.384;2023-03-26T11:15:23;97169.96;;;11.31;51.58
76815;BME280;65768;49.906;19.384;2023-03-26T11:21:20;97164.52;;;11.67;50.61
76815;BME280;65768;49.906;19.384;2023-03-26T11:32:48;97135.18;;;12.09;49.02
76815;BME280;65768;49.906;19.384;2023-03-26T11:35:26;97126.52;;;12.35;49.50
76815;BME280;65768;49.906;19.384;2023-03-26T11:38:17;97132.70;;;12.24;46.82
76815;BME280;65768;49.906;19.384;2023-03-26T11:40:51;97126.75;;;12.47;48.17
76815;BME280;65768;49.906;19.384;2023-03-26T11:43:24;97127.43;;;12.48;47.42
76815;BME280;65768;49.906;19.384;2023-03-26T11:45:54;97133.35;;;12.20;48.28
76815;BME280;65768;49.906;19.384;2023-03-26T11:48:29;97131.30;;;11.87;49.76
76815;BME280;65768;49.906;19.384;2023-03-26T11:51:06;97140.93;;;11.69;50.29
76815;BME280;65768;49.906;19.384;2023-03-26T11:53:36;97134.34;;;11.74;49.90
76815;BME280;65768;49.906;19.384;2023-03-26T11:56:30;97129.16;;;11.89;50.09
76815;BME280;65768;49.906;19.384;2023-03-26T11:59:08;97129.45;;;11.83;49.75
76815;BME280;65768;49.906;19.384;2023-03-26T12:02:15;97128.06;;;11.75;50.16
76815;BME280;65768;49.906;19.384;2023-03-26T12:04:50;97129.33;;;11.72;50.29
76815;BME280;65768;49.906;19.384;2023-03-26T12:07:31;97127.17;;;11.75;50.50
76815;BME280;65768;49.906;19.384;2023-03-26T12:10:06;97128.79;;;11.65;50.10
76815;BME280;65768;49.906;19.384;2023-03-26T12:12:51;97124.60;;;12.20;49.72
76815;BME280;65768;49.906;19.384;2023-03-26T12:15:20;97124.27;;;12.34;48.66
76815;BME280;65768;49.906;19.384;2023-03-26T12:17:54;97116.23;;;12.69;46.34
76815;BME280;65768;49.906;19.384;2023-03-26T12:20:34;97111.88;;;13.14;46.10
76815;BME280;65768;49.906;19.384;2023-03-26T12:23:04;97108.66;;;13.43;46.19
76815;BME280;65768;49.906;19.384;2023-03-26T12:25:36;97102.75;;;13.09;46.31
76815;BME280;65768;49.906;19.384;2023-03-26T12:28:30;97101.05;;;12.80;45.42
76815;BME280;65768;49.906;19.384;2023-03-26T12:31:01;97094.38;;;12.48;45.12
76815;BME280;65768;49.906;19.384;2023-03-26T12:33:33;97086.95;;;12.58;46.24
76815;BME280;65768;49.906;19.384;2023-03-26T12:36:31;97089.81;;;12.89;46.60
76815;BME280;65768;49.906;19.384;2023-03-26T12:39:01;97080.05;;;13.07;46.95
76815;BME280;65768;49.906;19.384;2023-03-26T12:41:55;97077.34;;;13.17;45.27
76815;BME280;65768;49.906;19.384;2023-03-26T12:44:43;97068.99;;;13.46;46.27
76815;BME280;65768;49.906;19.384;2023-03-26T12:47:21;97069.45;;;13.05;44.71
76815;BME280;65768;49.906;19.384;2023-03-26T12:49:53;97065.37;;;12.94;45.47
76815;BME280;65768;49.906;19.384;2023-03-26T12:52:51;97062.86;;;13.08;45.49
76815;BME280;65768;49.906;19.384;2023-03-26T12:56:25;97064.10;;;13.21;45.84
76815;BME280;65768;49.906;19.384;2023-03-26T13:17:42;97023.64;;;14.18;43.52
76815;BME280;65768;49.906;19.384;2023-03-26T13:28:58;97021.92;;;13.73;45.30
76815;BME280;65768;49.906;19.384;2023-03-26T13:35:01;97010.11;;;13.53;46.76
76815;BME280;65768;49.906;19.384;2023-03-26T13:38:12;97008.73;;;13.23;47.66
76815;BME280;65768;49.906;19.384;2023-03-26T13:40:58;97008.98;;;12.96;47.71
76815;BME280;65768;49.906;19.384;2023-03-26T13:46:24;97009.88;;;12.76;49.10
76815;BME280;65768;49.906;19.384;2023-03-26T13:49:02;97006.13;;;12.80;47.85
76815;BME280;65768;49.906;19.384;2023-03-26T13:51:52;97008.39;;;12.74;48.19
76815;BME280;65768;49.906;19.384;2023-03-26T13:54:30;97005.86;;;12.70;49.30
76815;BME280;65768;49.906;19.384;2023-03-26T13:57:08;97004.35;;;12.74;47.94
76815;BME280;65768;49.906;19.384;2023-03-26T13:59:53;96997.33;;;12.76;47.52
76815;BME280;65768;49.906;19.384;2023-03-26T14:04:56;96993.86;;;12.98;48.02
76815;BME280;65768;49.906;19.384;2023-03-26T14:07:47;96994.15;;;13.07;47.27
76815;BME280;65768;49.906;19.384;2023-03-26T14:10:25;96994.00;;;13.06;46.78
76815;BME280;65768;49.906;19.384;2023-03-26T14:13:03;96991.38;;;12.94;46.85
76815;BME280;65768;49.906;19.384;2023-03-26T14:15:46;96993.34;;;12.93;47.41
76815;BME280;65768;49.906;19.384;2023-03-26T14:18:29;96993.19;;;12.98;48.54
76815;BME280;65768;49.906;19.384;2023-03-26T14:26:57;96984.66;;;13.14;46.21
76815;BME280;65768;49.906;19.384;2023-03-26T14:29:51;96981.28;;;12.98;47.38
76815;BME280;65768;49.906;19.384;2023-03-26T14:32:40;96988.31;;;12.66;48.22
76815;BME280;65768;49.906;19.384;2023-03-26T14:35:29;96987.00;;;12.50;46.41
76815;BME280;65768;49.906;19.384;2023-03-26T14:41:45;96988.67;;;12.27;45.88
76815;BME280;65768;49.906;19.384;2023-03-26T14:44:37;96981.20;;;12.32;46.03
76815;BME280;65768;49.906;19.384;2023-03-26T14:47:20;96979.12;;;12.38;45.06
76815;BME280;65768;49.906;19.384;2023-03-26T14:56:36;96976.52;;;12.50;44.87
76815;BME280;65768;49.906;19.384;2023-03-26T14:59:45;96973.50;;;12.64;45.00
76815;BME280;65768;49.906;19.384;2023-03-26T15:02:51;96973.10;;;13.09;44.33
76815;BME280;65768;49.906;19.384;2023-03-26T15:44:29;96942.79;;;12.75;43.59
76815;BME280;65768;49.906;19.384;2023-03-26T15:50:09;96939.30;;;12.43;45.22
76815;BME280;65768;49.906;19.384;2023-03-26T15:52:55;96938.33;;;12.22;45.56
76815;BME280;65768;49.906;19.384;2023-03-26T15:55:33;96934.23;;;12.05;45.63
76815;BME280;65768;49.906;19.384;2023-03-26T15:58:30;96935.58;;;12.00;45.72
76815;BME280;65768;49.906;19.384;2023-03-26T16:06:59;96929.83;;;11.77;47.05
76815;BME280;65768;49.906;19.384;2023-03-26T16:09:50;96923.35;;;11.71;47.35
76815;BME280;65768;49.906;19.384;2023-03-26T16:12:27;96922.29;;;11.72;47.19
76815;BME280;65768;49.906;19.384;2023-03-26T16:15:14;96921.23;;;11.65;45.91
76815;BME280;65768;49.906;19.384;2023-03-26T16:20:45;96925.04;;;11.38;48.97
76815;BME280;65768;49.906;19.384;2023-03-26T16:29:24;96921.25;;;11.05;50.48
76815;BME280;65768;49.906;19.384;2023-03-26T16:32:15;96922.36;;;11.03;50.20
76815;BME280;65768;49.906;19.384;2023-03-26T16:38:08;96922.96;;;10.83;50.46
76815;BME280;65768;49.906;19.384;2023-03-26T16:41:04;96921.04;;;10.83;49.92
76815;BME280;65768;49.906;19.384;2023-03-26T16:53:16;96914.98;;;10.57;51.68
76815;BME280;65768;49.906;19.384;2023-03-26T16:55:46;96915.08;;;10.52;51.80
76815;BME280;65768;49.906;19.384;2023-03-26T16:58:29;96910.38;;;10.52;51.95
76815;BME280;65768;49.906;19.384;2023-03-26T17:01:20;96902.61;;;10.40;52.58
76815;BME280;65768;49.906;19.384;2023-03-26T17:04:00;96913.05;;;10.41;52.68
76815;BME280;65768;49.906;19.384;2023-03-26T17:10:17;96914.33;;;10.38;52.27
76815;BME280;65768;49.906;19.384;2023-03-26T17:13:05;96911.95;;;10.34;52.04
76815;BME280;65768;49.906;19.384;2023-03-26T17:15:46;96911.65;;;10.32;52.02
76815;BME280;65768;49.906;19.384;2023-03-26T17:18:34;96915.32;;;10.21;52.58
76815;BME280;65768;49.906;19.384;2023-03-26T17:21:14;96912.77;;;10.08;52.96
76815;BME280;65768;49.906;19.384;2023-03-26T17:26:33;96915.20;;;9.80;53.74
76815;BME280;65768;49.906;19.384;2023-03-26T17:29:25;96912.57;;;9.71;53.72
76815;BME280;65768;49.906;19.384;2023-03-26T17:32:08;96913.80;;;9.70;53.76
76815;BME280;65768;49.906;19.384;2023-03-26T17:42:59;96922.67;;;9.71;54.79
76815;BME280;65768;49.906;19.384;2023-03-26T17:45:33;96920.23;;;9.81;54.96
76815;BME280;65768;49.906;19.384;2023-03-26T17:48:20;96922.55;;;9.87;54.26
76815;BME280;65768;49.906;19.384;2023-03-26T17:51:02;96923.52;;;9.91;54.44
76815;BME280;65768;49.906;19.384;2023-03-26T17:53:35;96920.02;;;9.92;54.69
76815;BME280;65768;49.906;19.384;2023-03-26T17:56:13;96925.39;;;9.94;54.32
76815;BME280;65768;49.906;19.384;2023-03-26T17:58:47;96928.48;;;9.96;54.44
76815;BME280;65768;49.906;19.384;2023-03-26T18:01:27;96930.64;;;10.03;54.40
76815;BME280;65768;49.906;19.384;2023-03-26T18:03:58;96932.52;;;10.05;54.28
76815;BME280;65768;49.906;19.384;2023-03-26T18:15:47;96933.42;;;10.21;53.89
76815;BME280;65768;49.906;19.384;2023-03-26T18:18:21;96932.63;;;10.17;54.60
76815;BME280;65768;49.906;19.384;2023-03-26T18:20:52;96931.75;;;10.17;54.43
76815;BME280;65768;49.906;19.384;2023-03-26T18:23:29;96922.56;;;10.15;54.96
76815;BME280;65768;49.906;19.384;2023-03-26T18:26:18;96920.73;;;10.11;55.28